createdAt,value
2023-04-30T00:03:11.440Z,102206.81
2023-04-30T00:08:08.198Z,102221.03
2023-04-30T00:13:14.138Z,102215.97
2023-04-30T00:18:11.253Z,102227.19
2023-04-30T00:23:07.946Z,102225.03
2023-04-30T00:28:08.580Z,102256.47
2023-04-30T00:33:08.437Z,102237.44
2023-04-30T00:38:08.321Z,102229.88
2023-04-30T00:43:36.084Z,102256.84
2023-04-30T00:48:32.910Z,102235.38
2023-04-30T00:53:29.772Z,102257.31
2023-04-30T00:58:27.735Z,102263.50
2023-04-30T01:03:36.537Z,102250.66
2023-04-30T01:08:34.040Z,102253.34
2023-04-30T01:13:56.783Z,102287.34
2023-04-30T01:19:00.592Z,102278.75
2023-04-30T01:24:33.507Z,102284.19
2023-04-30T01:29:31.156Z,102260.84
2023-04-30T01:34:34.320Z,102273.00
2023-04-30T01:40:09.946Z,102288.66
2023-04-30T01:45:15.621Z,102287.06
2023-04-30T01:50:30.838Z,102284.59
2023-04-30T01:55:38.413Z,102305.84
2023-04-30T02:00:48.107Z,102301.41
2023-04-30T02:05:45.076Z,102300.72
2023-04-30T02:10:41.770Z,102315.78
2023-04-30T02:15:38.670Z,102294.22
2023-04-30T02:20:41.506Z,102299.59
2023-04-30T02:25:39.135Z,102299.75
2023-04-30T02:30:35.878Z,102297.19
2023-04-30T02:35:42.445Z,102309.41
2023-04-30T02:40:44.952Z,102295.63
2023-04-30T02:46:00.288Z,102327.00
2023-04-30T02:50:57.138Z,102319.41
2023-04-30T02:55:53.773Z,102311.75
2023-04-30T03:00:50.441Z,102315.22
2023-04-30T03:05:52.921Z,102312.59
2023-04-30T03:16:35.580Z,102344.00
2023-04-30T03:21:32.686Z,102309.28
2023-04-30T03:26:29.500Z,102324.25
2023-04-30T03:31:26.403Z,102345.97
2023-04-30T03:36:23.289Z,102347.72
2023-04-30T03:41:22.036Z,102327.81
2023-04-30T03:46:30.026Z,102356.66
2023-04-30T03:51:28.525Z,102343.72
2023-04-30T03:56:26.229Z,102335.94
2023-04-30T04:01:23.063Z,102341.34
2023-04-30T04:06:19.965Z,102347.44
2023-04-30T04:11:16.786Z,102339.50
2023-04-30T04:16:15.080Z,102369.06
2023-04-30T04:21:11.966Z,102362.91
2023-04-30T04:26:08.668Z,102341.28
2023-04-30T04:31:15.919Z,102349.25
2023-04-30T04:36:12.704Z,102357.78
2023-04-30T04:41:11.723Z,102361.28
2023-04-30T04:46:09.634Z,102370.88
2023-04-30T04:51:08.260Z,102385.41
2023-04-30T04:56:05.744Z,102398.41
2023-04-30T05:01:02.563Z,102393.81
2023-04-30T05:05:59.281Z,102395.59
2023-04-30T05:11:18.690Z,102414.50
2023-04-30T05:16:21.974Z,102417.53
2023-04-30T05:21:18.517Z,102423.28
2023-04-30T05:26:31.572Z,102421.00
2023-04-30T05:31:28.062Z,102436.38
2023-04-30T05:36:24.577Z,102426.00
2023-04-30T05:41:22.041Z,102408.22
2023-04-30T05:46:19.054Z,102421.56
2023-04-30T05:51:16.062Z,102416.59
2023-04-30T05:56:13.621Z,102436.41
2023-04-30T06:01:11.202Z,102419.72
2023-04-30T06:06:08.145Z,102434.13
2023-04-30T06:11:05.389Z,102433.06
2023-04-30T06:16:05.468Z,102434.84
2023-04-30T06:21:02.285Z,102434.06
2023-04-30T06:26:44.616Z,102437.84
2023-04-30T06:31:41.445Z,102417.50
2023-04-30T06:37:15.368Z,102441.34
2023-04-30T06:42:12.124Z,102434.50
2023-04-30T06:47:11.770Z,102422.84
2023-04-30T06:52:12.024Z,102430.31
2023-04-30T06:57:12.440Z,102454.94
2023-04-30T07:03:10.312Z,102452.34
2023-04-30T07:08:07.487Z,102438.94
2023-04-30T07:14:04.226Z,102469.63
2023-04-30T07:19:04.369Z,102438.91
2023-04-30T07:24:01.140Z,102433.66
2023-04-30T07:29:38.839Z,102462.31
2023-04-30T07:34:35.582Z,102445.53
2023-04-30T07:39:32.463Z,102450.31
2023-04-30T07:44:32.485Z,102465.56
2023-04-30T07:54:42.663Z,102456.16
2023-04-30T07:59:39.423Z,102461.88
2023-04-30T08:19:58.085Z,102483.75
2023-04-30T08:24:55.802Z,102485.63
2023-04-30T08:29:52.539Z,102484.00
2023-04-30T08:34:49.175Z,102493.00
2023-04-30T08:39:45.598Z,102489.50
2023-04-30T08:44:46.747Z,102475.34
2023-04-30T08:49:43.750Z,102492.94
2023-04-30T08:54:40.330Z,102484.28
2023-04-30T08:59:36.948Z,102490.50
2023-04-30T09:04:33.485Z,102487.34
2023-04-30T09:09:33.258Z,102489.84
2023-04-30T09:14:29.793Z,102490.06
2023-04-30T09:19:30.858Z,102483.41
2023-04-30T09:24:27.287Z,102492.13
2023-04-30T09:29:36.598Z,102486.72
2023-04-30T09:34:36.053Z,102487.41
2023-04-30T09:39:32.519Z,102477.66
2023-04-30T09:44:31.416Z,102479.41
2023-04-30T09:49:28.117Z,102472.56
2023-04-30T09:54:25.940Z,102472.22
2023-04-30T09:59:25.830Z,102463.06
2023-04-30T10:04:22.544Z,102456.78
2023-04-30T10:09:18.949Z,102447.59
2023-04-30T10:14:17.958Z,102442.34
2023-04-30T10:19:20.945Z,102440.66
2023-04-30T10:24:19.295Z,102452.31
2023-04-30T10:29:17.394Z,102440.53
2023-04-30T10:34:26.883Z,102441.53
2023-04-30T10:39:24.055Z,102437.66
2023-04-30T10:44:25.617Z,102432.69
2023-04-30T10:49:26.085Z,102424.84
2023-04-30T10:54:27.707Z,102411.81
2023-04-30T10:59:24.362Z,102409.44
2023-04-30T11:04:20.855Z,102411.66
2023-04-30T11:09:17.425Z,102416.53
2023-04-30T11:14:20.404Z,102397.59
2023-04-30T11:19:16.971Z,102393.06
2023-04-30T11:24:13.413Z,102401.00
2023-04-30T11:29:09.944Z,102401.69
2023-04-30T11:34:07.145Z,102392.59
2023-04-30T11:39:06.161Z,102393.81
2023-04-30T11:44:02.591Z,102389.41
2023-04-30T11:48:59.833Z,102383.94
2023-04-30T11:53:57.156Z,102390.06
2023-04-30T11:58:55.822Z,102382.13
2023-04-30T12:03:55.117Z,102381.13
2023-04-30T12:08:56.251Z,102376.44
2023-04-30T12:13:56.865Z,102366.69
2023-04-30T12:18:53.394Z,102362.00
2023-04-30T12:23:50.039Z,102366.06
2023-04-30T12:28:49.915Z,102363.41
2023-04-30T12:33:54.509Z,102343.19
2023-04-30T12:39:01.827Z,102355.06
2023-04-30T12:44:33.656Z,102351.41
2023-04-30T12:49:30.801Z,102345.16
2023-04-30T12:54:31.517Z,102333.44
2023-04-30T12:59:39.406Z,102333.22
2023-04-30T13:04:36.454Z,102334.06
2023-04-30T13:09:37.292Z,102331.56
2023-04-30T13:14:33.971Z,102320.16
2023-04-30T13:19:30.456Z,102313.97
2023-04-30T13:24:27.003Z,102303.31
2023-04-30T13:29:23.636Z,102297.72
2023-04-30T13:34:20.230Z,102294.59
2023-04-30T13:39:17.165Z,102291.50
2023-04-30T13:44:13.651Z,102293.69
2023-04-30T13:49:10.098Z,102278.78
2023-04-30T13:54:06.712Z,102279.47
2023-04-30T13:59:03.258Z,102269.66
2023-04-30T14:03:59.964Z,102271.09
2023-04-30T14:08:57.335Z,102265.66
2023-04-30T14:13:54.496Z,102263.94
2023-04-30T14:18:54.973Z,102250.50
2023-04-30T14:23:52.184Z,102250.19
2023-04-30T14:28:48.716Z,102244.56
2023-04-30T14:33:45.498Z,102233.56
2023-04-30T14:38:42.056Z,102235.19
2023-04-30T14:43:38.578Z,102236.84
2023-04-30T14:48:35.054Z,102229.25
2023-04-30T14:53:32.938Z,102235.19
2023-04-30T14:58:29.364Z,102219.63
2023-04-30T15:03:26.080Z,102217.53
2023-04-30T15:08:22.659Z,102217.19
2023-04-30T15:13:19.152Z,102214.94
2023-04-30T15:18:15.885Z,102206.16
2023-04-30T15:23:12.482Z,102203.41
2023-04-30T15:28:08.824Z,102201.44
2023-04-30T15:33:05.347Z,102201.59
2023-04-30T15:38:01.727Z,102193.50
2023-04-30T15:42:58.199Z,102193.75
2023-04-30T15:47:54.881Z,102190.91
2023-04-30T15:52:51.170Z,102184.63
2023-04-30T15:57:47.638Z,102182.03
2023-04-30T16:02:44.185Z,102173.59
2023-04-30T16:07:43.771Z,102171.00
2023-04-30T16:12:41.112Z,102168.50
2023-04-30T16:17:37.598Z,102163.75
2023-04-30T16:22:34.458Z,102161.09
2023-04-30T16:27:37.601Z,102146.88
2023-04-30T16:32:34.275Z,102151.16
2023-04-30T16:37:31.072Z,102155.56
2023-04-30T16:42:32.566Z,102142.47
2023-04-30T16:47:30.035Z,102142.47
2023-04-30T16:52:38.618Z,102136.38
2023-04-30T16:57:42.020Z,102123.47
2023-04-30T17:02:48.881Z,102126.06
2023-04-30T17:07:58.753Z,102115.47
2023-04-30T17:12:57.587Z,102123.47
2023-04-30T17:18:03.903Z,102116.41
2023-04-30T17:23:01.632Z,102092.50
2023-04-30T17:28:12.982Z,102108.16
2023-04-30T17:33:23.800Z,102090.84
2023-04-30T17:38:25.590Z,102116.00
2023-04-30T17:55:02.613Z,102095.94
2023-04-30T18:00:30.730Z,102118.75
2023-04-30T18:05:42.883Z,102101.19
2023-04-30T18:17:02.651Z,102123.13
2023-04-30T18:41:07.995Z,102104.34
2023-04-30T18:46:35.989Z,102101.13
2023-04-30T18:51:50.038Z,102110.75
2023-04-30T18:57:48.640Z,102132.72
2023-04-30T19:03:08.032Z,102111.06
2023-04-30T19:13:59.028Z,102141.09
2023-04-30T19:18:58.260Z,102137.41
2023-04-30T19:24:24.744Z,102124.72
2023-04-30T19:29:30.590Z,102144.81
2023-04-30T19:34:52.676Z,102149.50
2023-04-30T19:40:22.112Z,102130.00
2023-04-30T19:45:27.590Z,102133.09
2023-04-30T19:51:15.246Z,102162.97
2023-04-30T20:01:40.004Z,102129.38
2023-04-30T20:06:36.570Z,102139.09
2023-04-30T20:11:33.104Z,102156.63
2023-04-30T20:16:29.673Z,102147.22
2023-04-30T20:21:26.173Z,102155.50
2023-04-30T20:26:25.477Z,102150.63
2023-04-30T20:31:21.993Z,102154.38
2023-04-30T20:36:20.216Z,102149.44
2023-04-30T20:41:17.067Z,102144.38
2023-04-30T20:46:14.719Z,102142.88
2023-04-30T20:51:11.197Z,102136.06
2023-04-30T20:56:07.977Z,102134.31
2023-04-30T21:01:04.379Z,102136.25
2023-04-30T21:06:00.939Z,102122.47
2023-04-30T21:10:57.464Z,102126.25
2023-04-30T21:15:54.847Z,102122.88
2023-04-30T21:20:51.462Z,102120.53
2023-04-30T21:25:48.232Z,102122.53
2023-04-30T21:30:44.713Z,102123.63
2023-04-30T21:35:42.271Z,102117.66
2023-04-30T21:40:41.071Z,102110.88
2023-04-30T21:45:37.639Z,102117.00
2023-04-30T21:50:34.351Z,102106.72
2023-04-30T21:55:31.074Z,102105.16
2023-04-30T22:00:28.003Z,102101.88
2023-04-30T22:05:24.505Z,102099.47
2023-04-30T22:10:21.282Z,102099.84
2023-04-30T22:15:17.749Z,102082.66
2023-04-30T22:20:14.525Z,102089.53
2023-04-30T22:25:10.969Z,102087.19
2023-04-30T22:30:07.851Z,102069.94
2023-04-30T22:35:04.554Z,102086.94
2023-04-30T22:40:01.761Z,102063.75
2023-04-30T22:44:59.027Z,102071.66
2023-04-30T22:49:56.331Z,102074.38
2023-04-30T22:54:53.001Z,102063.91
2023-04-30T22:59:49.654Z,102058.00
2023-04-30T23:04:49.511Z,102054.53
2023-04-30T23:09:45.959Z,102049.63
2023-04-30T23:14:42.483Z,102046.38
2023-04-30T23:19:38.948Z,102046.66
2023-04-30T23:24:35.899Z,102044.97
2023-04-30T23:29:33.299Z,102041.56
2023-04-30T23:34:34.250Z,102052.53
2023-04-30T23:39:30.775Z,102043.88
2023-04-30T23:44:27.226Z,102029.88
2023-04-30T23:49:26.396Z,102025.88
2023-04-30T23:54:23.264Z,102023.28
2023-04-30T23:59:28.665Z,102018.09
